createdAt,value
2022-10-18T00:00:48.858Z,24.57
2022-10-18T00:01:51.086Z,24.51
2022-10-18T00:02:53.145Z,24.23
2022-10-18T00:03:55.014Z,24.19
2022-10-18T00:04:56.982Z,23.10
2022-10-18T00:05:59.570Z,23.59
2022-10-18T00:07:01.668Z,21.09
2022-10-18T00:08:04.070Z,20.05
2022-10-18T00:09:06.607Z,19.53
2022-10-18T00:10:10.032Z,20.10
2022-10-18T00:11:12.144Z,20.29
2022-10-18T00:12:14.231Z,20.42
2022-10-18T00:13:16.906Z,20.33
2022-10-18T00:14:19.112Z,19.85
2022-10-18T00:15:20.997Z,20.67
2022-10-18T00:16:23.197Z,20.27
2022-10-18T00:17:25.073Z,20.07
2022-10-18T00:18:28.040Z,19.81
2022-10-18T00:19:29.955Z,20.45
2022-10-18T00:20:31.930Z,19.77
2022-10-18T00:21:34.316Z,19.94
2022-10-18T00:22:40.644Z,20.23
2022-10-18T00:23:43.730Z,20.36
2022-10-18T00:24:45.637Z,19.27
2022-10-18T00:25:47.686Z,20.21
2022-10-18T00:26:49.980Z,20.31
2022-10-18T00:27:51.855Z,19.61
2022-10-18T00:28:59.400Z,20.13
2022-10-18T00:30:01.882Z,19.42
2022-10-18T00:31:16.444Z,18.70
2022-10-18T00:32:18.616Z,19.68
2022-10-18T00:33:20.940Z,18.17
2022-10-18T00:34:22.850Z,18.79
2022-10-18T00:35:25.257Z,19.13
2022-10-18T00:36:29.988Z,17.94
2022-10-18T00:37:32.612Z,17.76
2022-10-18T00:38:35.184Z,18.62
2022-10-18T00:39:37.095Z,17.96
2022-10-18T00:40:39.092Z,18.57
2022-10-18T00:41:41.256Z,19.16
2022-10-18T00:42:43.206Z,19.09
2022-10-18T00:43:58.213Z,17.39
2022-10-18T00:45:19.235Z,18.76
2022-10-18T00:46:22.964Z,18.16
2022-10-18T00:47:25.868Z,15.86
2022-10-18T00:48:27.753Z,18.35
2022-10-18T00:49:36.681Z,15.33
2022-10-18T00:50:39.523Z,15.51
2022-10-18T00:51:48.236Z,15.70
2022-10-18T00:52:56.879Z,15.29
2022-10-18T00:53:59.439Z,15.37
2022-10-18T00:55:03.069Z,16.73
2022-10-18T00:56:05.769Z,16.31
2022-10-18T00:57:08.365Z,16.43
2022-10-18T00:58:13.573Z,16.08
2022-10-18T00:59:17.405Z,16.29
2022-10-18T01:00:20.058Z,17.07
2022-10-18T01:01:24.510Z,16.48
2022-10-18T01:02:25.946Z,18.59
2022-10-18T01:03:27.819Z,19.12
2022-10-18T01:04:29.930Z,20.33
2022-10-18T01:05:32.035Z,22.71
2022-10-18T01:06:54.781Z,23.01
2022-10-18T01:08:06.699Z,18.85
2022-10-18T01:09:15.418Z,19.32
2022-10-18T01:10:30.073Z,20.99
2022-10-18T01:13:20.928Z,21.66
2022-10-18T01:14:25.933Z,21.14
2022-10-18T01:15:31.418Z,20.00
2022-10-18T01:16:39.926Z,21.63
2022-10-18T01:17:57.307Z,19.89
2022-10-18T01:19:05.757Z,20.31
2022-10-18T01:20:14.612Z,18.74
2022-10-18T01:21:26.338Z,19.04
2022-10-18T01:22:37.626Z,18.36
2022-10-18T01:23:58.450Z,18.14
2022-10-18T01:25:32.769Z,19.06
2022-10-18T01:26:41.577Z,19.22
2022-10-18T01:27:59.404Z,18.62
2022-10-18T01:29:29.774Z,17.93
2022-10-18T01:30:35.754Z,18.40
2022-10-18T01:31:41.477Z,19.57
2022-10-18T01:32:55.999Z,18.72
2022-10-18T01:35:07.577Z,21.47
2022-10-18T01:36:16.909Z,21.13
2022-10-18T01:37:21.218Z,20.58
2022-10-18T01:38:25.310Z,20.59
2022-10-18T01:39:33.927Z,20.71
2022-10-18T01:40:37.702Z,20.73
2022-10-18T01:41:42.808Z,19.56
2022-10-18T01:42:47.772Z,19.38
2022-10-18T01:43:53.454Z,18.75
2022-10-18T01:44:56.331Z,19.01
2022-10-18T01:46:00.039Z,17.31
2022-10-18T01:47:04.179Z,15.64
2022-10-18T01:48:06.910Z,14.66
2022-10-18T01:49:08.957Z,14.37
2022-10-18T01:50:12.482Z,13.23
2022-10-18T01:51:16.660Z,13.03
2022-10-18T01:52:18.611Z,12.31
2022-10-18T01:54:43.580Z,10.81
2022-10-18T01:55:49.262Z,10.49
2022-10-18T01:56:58.115Z,11.14
2022-10-18T01:58:09.619Z,10.66
2022-10-18T01:59:40.789Z,10.93
2022-10-18T02:00:43.734Z,11.07
2022-10-18T02:02:04.282Z,11.06
2022-10-18T02:03:15.712Z,10.74
2022-10-18T02:05:46.150Z,11.06
2022-10-18T02:06:51.937Z,10.08
2022-10-18T02:08:12.064Z,10.16
2022-10-18T02:09:11.226Z,10.13
2022-10-18T02:10:27.116Z,12.36
2022-10-18T02:11:32.134Z,11.34
2022-10-18T02:12:37.336Z,12.15
2022-10-18T02:13:42.806Z,11.90
2022-10-18T02:14:46.671Z,12.25
2022-10-18T02:15:52.322Z,10.84
2022-10-18T02:16:58.206Z,11.91
2022-10-18T02:18:03.101Z,10.79
2022-10-18T02:19:11.849Z,10.64
2022-10-18T02:20:18.490Z,11.07
2022-10-18T02:21:21.858Z,10.63
2022-10-18T02:22:27.380Z,10.19
2022-10-18T02:23:31.365Z,10.59
2022-10-18T02:24:37.130Z,14.39
2022-10-18T02:25:39.073Z,12.94
2022-10-18T02:26:41.641Z,13.02
2022-10-18T02:27:44.043Z,13.33
2022-10-18T02:28:46.250Z,13.23
2022-10-18T02:29:49.101Z,11.27
2022-10-18T02:30:54.923Z,12.69
2022-10-18T02:32:09.621Z,14.81
2022-10-18T02:33:21.211Z,13.52
2022-10-18T02:34:27.037Z,14.61
2022-10-18T02:35:32.410Z,14.98
2022-10-18T02:36:38.389Z,15.53
2022-10-18T02:37:42.146Z,16.18
2022-10-18T02:38:46.063Z,13.64
2022-10-18T02:39:50.816Z,14.51
2022-10-18T02:40:53.216Z,15.18
2022-10-18T02:41:56.839Z,15.11
2022-10-18T02:42:59.020Z,14.78
2022-10-18T02:44:01.100Z,15.59
2022-10-18T02:45:05.149Z,13.97
2022-10-18T02:46:07.423Z,14.78
2022-10-18T02:47:10.745Z,14.45
2022-10-18T02:48:12.653Z,12.93
2022-10-18T02:49:15.150Z,12.42
2022-10-18T02:50:18.535Z,12.28
2022-10-18T02:51:20.405Z,13.69
2022-10-18T02:52:22.815Z,13.15
2022-10-18T02:53:24.804Z,13.06
2022-10-18T02:54:26.722Z,14.03
2022-10-18T02:56:31.342Z,12.85
2022-10-18T02:57:33.829Z,12.00
2022-10-18T02:58:36.034Z,11.53
2022-10-18T02:59:38.028Z,10.52
2022-10-18T03:00:40.119Z,11.28
2022-10-18T03:01:42.413Z,10.83
2022-10-18T03:02:44.488Z,9.35
2022-10-18T03:03:46.824Z,10.99
2022-10-18T03:04:49.019Z,9.25
2022-10-18T03:05:52.306Z,9.74
2022-10-18T03:06:54.461Z,9.66
2022-10-18T03:07:56.942Z,9.43
2022-10-18T03:09:00.871Z,8.94
2022-10-18T03:10:03.353Z,9.72
2022-10-18T03:11:05.755Z,8.47
2022-10-18T03:12:07.840Z,9.25
2022-10-18T03:13:10.237Z,8.99
2022-10-18T03:14:12.630Z,9.27
2022-10-18T03:15:14.783Z,9.51
2022-10-18T03:16:17.611Z,8.76
2022-10-18T03:17:21.466Z,9.81
2022-10-18T03:18:23.399Z,9.03
2022-10-18T03:19:25.391Z,9.39
2022-10-18T03:20:27.782Z,9.78
2022-10-18T03:21:29.886Z,10.05
2022-10-18T03:22:31.995Z,11.49
2022-10-18T03:23:34.608Z,11.67
2022-10-18T03:24:36.540Z,11.48
2022-10-18T03:25:40.547Z,10.39
2022-10-18T03:26:42.417Z,10.56
2022-10-18T03:27:44.325Z,11.03
2022-10-18T03:28:46.555Z,11.03
2022-10-18T03:29:48.879Z,11.77
2022-10-18T03:30:51.230Z,13.22
2022-10-18T03:31:53.170Z,12.97
2022-10-18T03:32:55.041Z,12.32
2022-10-18T03:33:57.512Z,11.31
2022-10-18T03:34:59.540Z,11.75
2022-10-18T03:36:01.432Z,11.49
2022-10-18T03:37:05.367Z,12.31
2022-10-18T03:38:07.364Z,11.37
2022-10-18T03:39:10.901Z,11.89
2022-10-18T03:40:14.769Z,12.87
2022-10-18T03:41:16.634Z,12.68
2022-10-18T03:42:18.518Z,12.44
2022-10-18T03:43:20.526Z,12.75
2022-10-18T03:44:22.433Z,13.25
2022-10-18T03:45:28.888Z,13.77
2022-10-18T03:46:29.337Z,17.85
2022-10-18T03:47:31.445Z,16.93
2022-10-18T03:48:33.534Z,17.69
2022-10-18T03:49:35.504Z,16.98
2022-10-18T03:50:37.555Z,14.81
2022-10-18T03:51:39.577Z,13.78
2022-10-18T03:52:41.537Z,15.08
2022-10-18T03:53:45.031Z,13.65
2022-10-18T03:54:46.990Z,13.56
2022-10-18T03:55:53.429Z,13.96
2022-10-18T03:56:55.496Z,12.52
2022-10-18T03:57:57.690Z,12.29
2022-10-18T03:58:59.566Z,12.26
2022-10-18T04:00:01.471Z,11.98
2022-10-18T04:01:03.910Z,11.83
2022-10-18T04:02:05.848Z,12.85
2022-10-18T04:03:07.883Z,12.38
2022-10-18T04:04:09.779Z,11.41
2022-10-18T04:05:11.755Z,10.63
2022-10-18T04:06:14.198Z,11.19
2022-10-18T04:07:16.253Z,10.86
2022-10-18T04:08:18.729Z,10.57
2022-10-18T04:09:23.472Z,10.59
2022-10-18T04:10:25.656Z,10.77
2022-10-18T04:11:27.544Z,10.36
2022-10-18T04:12:29.990Z,10.83
2022-10-18T04:13:32.250Z,9.53
2022-10-18T04:14:34.120Z,10.38
2022-10-18T04:15:36.578Z,10.15
2022-10-18T04:16:38.576Z,10.47
2022-10-18T04:17:40.470Z,9.64
2022-10-18T04:18:42.380Z,10.15
2022-10-18T04:19:46.173Z,10.12
2022-10-18T04:20:48.435Z,9.95
2022-10-18T04:21:52.332Z,9.80
2022-10-18T04:22:54.354Z,10.38
2022-10-18T04:23:56.240Z,9.41
2022-10-18T04:24:58.153Z,9.17
2022-10-18T04:26:00.070Z,9.80
2022-10-18T04:27:01.938Z,9.70
2022-10-18T04:28:04.299Z,10.27
2022-10-18T04:29:06.226Z,10.18
2022-10-18T04:30:09.674Z,10.26
2022-10-18T04:31:12.870Z,10.82
2022-10-18T04:32:14.815Z,11.57
2022-10-18T04:33:17.463Z,11.05
2022-10-18T04:34:19.790Z,11.07
2022-10-18T04:35:21.709Z,11.43
2022-10-18T04:36:23.952Z,11.19
2022-10-18T04:37:25.849Z,11.61
2022-10-18T04:38:28.047Z,11.21
2022-10-18T04:39:30.285Z,10.33
2022-10-18T04:40:32.406Z,11.05
2022-10-18T04:41:34.285Z,10.34
2022-10-18T04:42:36.166Z,10.93
2022-10-18T04:43:38.070Z,10.37
2022-10-18T04:44:40.320Z,10.39
2022-10-18T04:45:46.884Z,9.79
2022-10-18T04:46:48.909Z,10.22
2022-10-18T04:47:50.810Z,9.83
2022-10-18T04:48:53.005Z,10.31
2022-10-18T04:49:54.908Z,9.78
2022-10-18T04:50:56.913Z,9.99
2022-10-18T04:52:03.902Z,10.11
2022-10-18T04:53:05.975Z,9.33
2022-10-18T04:54:07.860Z,9.51
2022-10-18T04:55:10.030Z,10.51
2022-10-18T04:56:12.723Z,9.93
2022-10-18T04:57:14.593Z,10.17
2022-10-18T04:58:17.446Z,9.55
2022-10-18T04:59:19.627Z,10.19
2022-10-18T05:00:21.979Z,10.08
2022-10-18T05:01:28.069Z,9.79
2022-10-18T05:02:30.762Z,9.94
2022-10-18T05:03:33.986Z,9.78
2022-10-18T05:04:35.882Z,10.36
2022-10-18T05:06:00.082Z,9.28
2022-10-18T05:06:41.895Z,9.55
2022-10-18T05:07:43.776Z,10.59
2022-10-18T05:08:45.883Z,10.49
2022-10-18T05:09:47.821Z,11.17
2022-10-18T05:10:49.908Z,10.34
2022-10-18T05:11:51.794Z,10.06
2022-10-18T05:12:53.697Z,9.82
2022-10-18T05:13:55.851Z,10.54
2022-10-18T05:14:58.162Z,9.87
2022-10-18T05:16:00.041Z,10.31
2022-10-18T05:17:02.031Z,10.41
2022-10-18T05:18:04.069Z,11.19
2022-10-18T05:19:05.970Z,11.59
2022-10-18T05:20:09.555Z,11.10
2022-10-18T05:21:11.870Z,11.61
2022-10-18T05:22:13.926Z,11.57
2022-10-18T05:23:15.917Z,10.51
2022-10-18T05:24:18.241Z,11.59
2022-10-18T05:25:20.301Z,15.29
2022-10-18T05:26:22.800Z,16.98
2022-10-18T05:27:28.272Z,18.02
2022-10-18T05:28:45.900Z,18.79
2022-10-18T05:29:34.345Z,18.31
2022-10-18T05:30:40.307Z,16.57
2022-10-18T05:31:42.233Z,20.42
2022-10-18T05:32:44.131Z,14.92
2022-10-18T05:33:46.360Z,16.83
2022-10-18T05:34:48.263Z,16.20
2022-10-18T05:35:50.145Z,15.22
2022-10-18T05:36:52.570Z,11.57
2022-10-18T05:37:54.471Z,11.67
2022-10-18T05:38:59.720Z,10.76
2022-10-18T05:40:00.890Z,9.59
2022-10-18T05:41:05.870Z,9.61
2022-10-18T05:42:08.136Z,9.28
2022-10-18T05:43:10.010Z,9.61
2022-10-18T05:44:11.907Z,9.47
2022-10-18T05:45:14.190Z,11.98
2022-10-18T05:46:16.460Z,12.65
2022-10-18T05:47:18.534Z,11.55
2022-10-18T05:48:20.810Z,12.09
2022-10-18T05:49:22.929Z,10.53
2022-10-18T05:50:25.323Z,9.58
2022-10-18T05:51:27.226Z,10.20
2022-10-18T05:52:29.375Z,9.87
2022-10-18T05:53:38.848Z,9.61
2022-10-18T05:54:35.714Z,9.81
2022-10-18T05:55:37.587Z,8.39
2022-10-18T05:56:40.280Z,8.98
2022-10-18T05:57:42.316Z,10.51
2022-10-18T05:58:46.101Z,10.51
2022-10-18T05:59:48.467Z,9.25
2022-10-18T06:00:50.679Z,9.56
2022-10-18T06:01:52.539Z,10.17
2022-10-18T06:02:58.224Z,8.48
2022-10-18T06:09:22.596Z,9.33
2022-10-18T06:10:25.160Z,10.08
2022-10-18T06:11:29.338Z,9.79
2022-10-18T06:12:31.627Z,8.64
2022-10-18T06:13:34.018Z,9.45
2022-10-18T06:14:37.069Z,9.38
2022-10-18T06:15:39.044Z,8.97
2022-10-18T06:16:41.057Z,9.05
2022-10-18T06:17:42.944Z,8.51
2022-10-18T06:18:49.350Z,9.49
2022-10-18T06:19:51.451Z,8.87
2022-10-18T06:20:57.956Z,8.80
2022-10-18T06:22:00.008Z,8.76
2022-10-18T06:23:01.882Z,9.66
2022-10-18T06:24:04.801Z,8.91
2022-10-18T06:25:07.786Z,8.90
2022-10-18T06:26:10.935Z,8.29
2022-10-18T06:27:12.830Z,8.55
2022-10-18T06:28:14.893Z,8.30
2022-10-18T06:29:16.853Z,8.37
2022-10-18T06:30:19.050Z,8.53
2022-10-18T06:31:20.945Z,7.89
2022-10-18T06:32:22.815Z,7.95
2022-10-18T06:33:25.281Z,9.27
2022-10-18T06:34:27.195Z,8.84
2022-10-18T06:35:29.164Z,8.43
2022-10-18T06:36:31.307Z,9.27
2022-10-18T06:37:33.620Z,8.66
2022-10-18T06:38:36.129Z,9.05
2022-10-18T06:39:38.281Z,8.11
2022-10-18T06:40:40.371Z,8.69
2022-10-18T06:41:42.387Z,8.67
2022-10-18T06:42:50.927Z,9.25
2022-10-18T06:43:50.777Z,8.86
2022-10-18T06:44:52.836Z,8.31
2022-10-18T06:45:55.210Z,8.83
2022-10-18T06:46:57.202Z,9.53
2022-10-18T06:47:59.177Z,11.01
2022-10-18T06:49:01.072Z,9.72
2022-10-18T06:50:03.653Z,9.27
2022-10-18T06:51:07.315Z,8.47
2022-10-18T06:52:09.251Z,8.36
2022-10-18T06:53:11.384Z,8.48
2022-10-18T06:54:18.110Z,8.81
2022-10-18T06:55:18.301Z,9.92
2022-10-18T06:56:20.586Z,8.63
2022-10-18T06:57:22.638Z,8.51
2022-10-18T06:58:24.634Z,7.98
2022-10-18T06:59:28.975Z,7.70
2022-10-18T07:00:31.607Z,8.15
2022-10-18T07:01:33.581Z,8.69
2022-10-18T07:02:35.518Z,7.61
2022-10-18T07:03:37.627Z,7.47
2022-10-18T07:04:39.542Z,8.57
2022-10-18T07:05:41.459Z,8.35
2022-10-18T07:06:43.554Z,8.45
2022-10-18T07:07:45.483Z,7.76
2022-10-18T07:08:49.226Z,7.64
2022-10-18T07:09:51.168Z,7.36
2022-10-18T07:10:53.177Z,7.41
2022-10-18T07:11:55.132Z,7.07
2022-10-18T07:13:13.717Z,7.01
2022-10-18T07:14:02.279Z,7.49
2022-10-18T07:15:09.101Z,7.21
2022-10-18T07:16:15.668Z,7.24
2022-10-18T07:17:16.879Z,8.00
2022-10-18T07:18:18.931Z,7.38
2022-10-18T07:19:23.874Z,7.54
2022-10-18T07:20:25.993Z,8.47
2022-10-18T07:21:28.240Z,8.23
2022-10-18T07:22:30.546Z,7.89
2022-10-18T07:23:36.509Z,7.66
2022-10-18T07:24:38.718Z,7.09
2022-10-18T07:25:40.758Z,8.11
2022-10-18T07:26:45.919Z,6.97
2022-10-18T07:27:48.075Z,6.68
2022-10-18T07:28:54.051Z,7.55
2022-10-18T07:29:56.207Z,6.83
2022-10-18T07:31:06.966Z,7.17
2022-10-18T07:32:08.929Z,7.05
2022-10-18T07:33:11.017Z,7.19
2022-10-18T07:34:13.481Z,7.51
2022-10-18T07:35:15.868Z,7.56
2022-10-18T07:36:18.668Z,6.88
2022-10-18T07:37:26.590Z,7.33
2022-10-18T07:38:26.332Z,7.33
2022-10-18T07:39:30.791Z,7.23
2022-10-18T07:40:33.166Z,6.72
2022-10-18T07:41:35.449Z,6.83
2022-10-18T07:42:37.533Z,6.53
2022-10-18T07:43:45.589Z,6.90
2022-10-18T07:44:47.541Z,6.78
2022-10-18T07:45:55.687Z,6.60
2022-10-18T07:46:57.684Z,6.79
2022-10-18T07:47:59.582Z,6.76
2022-10-18T07:49:01.454Z,7.19
2022-10-18T07:51:17.587Z,6.91
2022-10-18T07:52:19.555Z,7.52
2022-10-18T07:53:21.479Z,6.84
2022-10-18T07:54:23.586Z,7.15
2022-10-18T07:55:25.580Z,6.99
2022-10-18T07:56:27.952Z,6.51
2022-10-18T07:57:30.382Z,6.97
2022-10-18T07:58:33.887Z,6.52
2022-10-18T07:59:35.795Z,7.45
2022-10-18T08:00:40.999Z,7.50
2022-10-18T08:01:43.133Z,7.89
2022-10-18T08:02:45.386Z,7.39
2022-10-18T08:03:47.272Z,7.13
2022-10-18T08:04:49.359Z,6.75
2022-10-18T08:05:53.164Z,6.50
2022-10-18T08:06:55.299Z,6.45
2022-10-18T08:07:57.228Z,6.87
2022-10-18T08:08:59.264Z,7.18
2022-10-18T08:10:01.145Z,6.78
2022-10-18T08:12:19.684Z,7.11
2022-10-18T08:13:21.835Z,5.57
2022-10-18T08:14:23.726Z,5.40
2022-10-18T08:15:25.814Z,6.03
2022-10-18T08:16:28.775Z,6.69
2022-10-18T08:17:31.260Z,5.95
2022-10-18T08:18:34.204Z,5.73
2022-10-18T08:19:36.122Z,5.46
2022-10-18T08:20:44.229Z,5.73
2022-10-18T08:21:46.208Z,5.72
2022-10-18T08:22:50.244Z,6.29
2022-10-18T08:23:52.863Z,5.78
2022-10-18T08:24:55.032Z,5.94
2022-10-18T08:26:03.894Z,6.54
2022-10-18T08:27:05.876Z,6.40
2022-10-18T08:28:07.860Z,6.29
2022-10-18T08:29:21.377Z,8.28
2022-10-18T08:30:15.441Z,6.44
2022-10-18T08:31:18.459Z,6.10
2022-10-18T08:32:20.506Z,6.33
2022-10-18T08:33:23.119Z,6.19
2022-10-18T08:34:25.096Z,5.46
2022-10-18T08:35:27.307Z,6.02
2022-10-18T08:36:29.283Z,6.58
2022-10-18T08:37:32.151Z,5.70
2022-10-18T08:38:36.268Z,6.64
2022-10-18T08:39:38.400Z,4.92
2022-10-18T08:40:43.885Z,5.57
2022-10-18T08:43:23.443Z,6.07
2022-10-18T08:44:28.916Z,6.33
2022-10-18T08:45:42.952Z,4.88
2022-10-18T08:46:42.512Z,5.14
2022-10-18T08:47:47.874Z,4.85
2022-10-18T08:48:53.580Z,4.92
2022-10-18T08:50:02.291Z,5.32
2022-10-18T08:51:08.007Z,4.84
2022-10-18T08:52:25.500Z,4.86
2022-10-18T08:53:31.825Z,4.78
2022-10-18T08:54:38.754Z,5.04
2022-10-18T08:55:53.788Z,4.34
2022-10-18T08:57:02.114Z,5.13
2022-10-18T08:58:10.339Z,5.17
2022-10-18T08:59:13.220Z,5.02
2022-10-18T09:00:21.269Z,5.22
2022-10-18T09:01:42.346Z,3.84
2022-10-18T09:04:19.531Z,5.30
2022-10-18T09:05:31.247Z,4.69
2022-10-18T09:07:07.560Z,4.90
2022-10-18T09:08:16.395Z,4.17
2022-10-18T09:09:45.173Z,4.41
2022-10-18T09:11:03.428Z,4.26
2022-10-18T09:12:25.912Z,4.49
2022-10-18T09:13:48.478Z,4.59
2022-10-18T09:14:54.174Z,4.98
2022-10-18T09:16:11.876Z,4.26
2022-10-18T09:17:23.290Z,4.21
2022-10-18T09:18:38.103Z,4.81
2022-10-18T09:20:04.999Z,4.77
2022-10-18T09:21:22.454Z,4.91
2022-10-18T09:22:34.328Z,4.70
2022-10-18T09:23:57.089Z,5.49
2022-10-18T09:25:08.882Z,5.07
2022-10-18T09:26:21.461Z,4.70
2022-10-18T09:27:27.187Z,5.15
2022-10-18T09:28:49.834Z,5.02
2022-10-18T09:29:55.713Z,4.71
2022-10-18T09:31:13.724Z,4.73
2022-10-18T09:32:44.892Z,4.31
2022-10-18T09:34:02.518Z,3.89
2022-10-18T09:35:23.105Z,4.22
2022-10-18T09:36:28.928Z,3.87
2022-10-18T09:37:33.928Z,4.97
2022-10-18T09:38:45.846Z,4.34
2022-10-18T09:39:49.980Z,4.01
2022-10-18T09:40:55.911Z,4.16
2022-10-18T09:43:15.283Z,3.68
2022-10-18T09:44:37.957Z,3.99
2022-10-18T09:45:43.093Z,4.73
2022-10-18T09:46:51.732Z,4.52
2022-10-18T09:48:03.250Z,4.32
2022-10-18T09:49:29.049Z,3.57
2022-10-18T09:50:46.514Z,4.05
2022-10-18T09:51:50.338Z,4.13
2022-10-18T09:53:18.422Z,3.75
2022-10-18T09:54:36.297Z,4.11
2022-10-18T09:55:42.091Z,4.96
2022-10-18T09:56:48.040Z,4.47
2022-10-18T09:57:53.804Z,3.71
2022-10-18T09:58:55.840Z,4.00
2022-10-18T10:00:00.800Z,3.41
2022-10-18T10:01:03.499Z,3.79
2022-10-18T10:02:06.513Z,3.65
2022-10-18T10:03:12.089Z,3.81
2022-10-18T10:04:14.019Z,3.89
2022-10-18T10:05:15.952Z,4.78
2022-10-18T10:06:30.076Z,4.70
2022-10-18T10:07:39.148Z,4.26
2022-10-18T10:08:45.177Z,3.98
2022-10-18T10:09:50.589Z,4.22
2022-10-18T10:10:53.630Z,4.04
2022-10-18T10:11:56.814Z,3.10
2022-10-18T10:13:17.242Z,3.85
2022-10-18T10:14:28.079Z,4.04
2022-10-18T10:15:35.299Z,3.27
2022-10-18T10:16:37.980Z,3.78
2022-10-18T10:17:42.762Z,3.47
2022-10-18T10:18:48.447Z,3.62
2022-10-18T10:20:16.971Z,3.92
2022-10-18T10:21:21.749Z,3.38
2022-10-18T10:22:33.656Z,3.91
2022-10-18T10:23:39.576Z,3.20
2022-10-18T10:24:53.701Z,3.58
2022-10-18T10:25:59.417Z,3.71
2022-10-18T10:27:05.269Z,4.70
2022-10-18T10:28:19.747Z,3.88
2022-10-18T10:29:48.801Z,3.20
2022-10-18T10:30:51.237Z,4.31
2022-10-18T10:32:03.742Z,4.05
2022-10-18T10:33:08.586Z,3.67
2022-10-18T10:34:17.096Z,3.88
2022-10-18T10:35:33.985Z,3.47
2022-10-18T10:36:27.409Z,3.31
2022-10-18T10:37:36.326Z,3.45
2022-10-18T10:38:38.457Z,3.68
2022-10-18T10:39:42.867Z,3.69
2022-10-18T10:40:49.501Z,3.52
2022-10-18T10:41:54.549Z,4.39
2022-10-18T10:43:36.418Z,7.53
2022-10-18T10:44:30.327Z,3.38
2022-10-18T10:46:38.188Z,3.79
2022-10-18T10:47:40.415Z,3.56
2022-10-18T10:48:49.288Z,3.87
2022-10-18T10:49:51.495Z,3.79
2022-10-18T10:50:57.567Z,3.16
2022-10-18T10:52:09.035Z,3.48
2022-10-18T10:53:09.892Z,3.86
2022-10-18T10:54:17.251Z,3.47
2022-10-18T10:55:35.025Z,3.81
2022-10-18T10:57:51.697Z,4.17
2022-10-18T10:58:57.158Z,3.89
2022-10-18T10:59:59.456Z,3.33
2022-10-18T11:01:17.267Z,4.18
2022-10-18T11:02:32.267Z,3.52
2022-10-18T11:03:34.791Z,4.18
2022-10-18T11:04:36.857Z,4.09
2022-10-18T11:05:45.218Z,3.41
2022-10-18T11:06:57.064Z,4.02
2022-10-18T11:08:02.302Z,3.39
2022-10-18T11:09:07.682Z,3.17
2022-10-18T11:10:13.654Z,3.78
2022-10-18T11:11:23.301Z,3.46
2022-10-18T11:12:41.509Z,3.41
2022-10-18T11:13:56.952Z,4.52
2022-10-18T11:15:00.912Z,3.06
2022-10-18T11:16:15.518Z,3.32
2022-10-18T11:17:21.411Z,3.13
2022-10-18T11:18:36.157Z,3.52
2022-10-18T11:19:41.924Z,3.02
2022-10-18T11:20:50.678Z,3.98
2022-10-18T11:21:53.589Z,3.86
2022-10-18T11:23:01.839Z,4.03
2022-10-18T11:24:07.731Z,4.76
2022-10-18T11:25:12.904Z,3.56
2022-10-18T11:26:18.805Z,3.94
2022-10-18T11:29:17.724Z,3.49
2022-10-18T11:30:46.240Z,3.43
2022-10-18T11:32:25.827Z,4.53
2022-10-18T11:34:07.543Z,3.42
2022-10-18T11:35:27.863Z,3.99
2022-10-18T11:36:46.197Z,2.96
2022-10-18T11:37:54.329Z,4.13
2022-10-18T11:39:15.216Z,4.06
2022-10-18T11:40:37.861Z,3.09
2022-10-18T11:41:49.736Z,3.59
2022-10-18T11:44:51.538Z,3.06
2022-10-18T11:46:06.280Z,3.48
2022-10-18T11:47:21.027Z,3.60
2022-10-18T11:48:43.283Z,3.49
2022-10-18T11:49:55.118Z,3.24
2022-10-18T11:51:23.754Z,3.43
2022-10-18T11:54:19.128Z,3.63
2022-10-18T11:55:49.483Z,3.82
2022-10-18T11:57:12.116Z,3.56
2022-10-18T11:58:43.905Z,3.81
2022-10-18T11:59:58.089Z,3.37
2022-10-18T12:01:06.876Z,2.81
2022-10-18T12:03:56.044Z,2.83
2022-10-18T12:06:18.296Z,3.85
2022-10-18T12:07:27.754Z,3.57
2022-10-18T12:08:42.716Z,3.07
2022-10-18T12:11:09.461Z,2.91
2022-10-18T12:12:02.570Z,3.44
2022-10-18T12:13:07.505Z,3.49
2022-10-18T12:14:28.517Z,3.22
2022-10-18T12:15:34.274Z,2.91
2022-10-18T12:16:51.030Z,3.30
2022-10-18T12:17:57.398Z,3.76
2022-10-18T12:19:03.298Z,3.35
2022-10-18T12:20:31.113Z,2.47
2022-10-18T12:21:33.945Z,3.39
2022-10-18T12:22:48.755Z,3.46
2022-10-18T12:23:54.398Z,2.89
2022-10-18T12:24:56.317Z,3.02
2022-10-18T12:26:04.576Z,2.57
2022-10-18T12:27:10.269Z,2.60
2022-10-18T12:28:28.509Z,3.22
2022-10-18T12:29:52.833Z,3.88
2022-10-18T12:30:58.703Z,3.07
2022-10-18T12:32:04.437Z,2.99
2022-10-18T12:33:27.228Z,2.73
2022-10-18T12:34:23.786Z,3.34
2022-10-18T12:35:29.218Z,3.54
2022-10-18T12:36:44.178Z,3.64
2022-10-18T12:38:08.300Z,2.79
2022-10-18T12:39:14.054Z,2.81
2022-10-18T12:42:37.748Z,3.06
2022-10-18T12:43:39.859Z,3.42
2022-10-18T12:44:41.887Z,3.65
2022-10-18T12:45:53.342Z,3.52
2022-10-18T12:46:58.671Z,4.13
2022-10-18T12:48:03.858Z,4.89
2022-10-18T12:49:07.774Z,4.02
2022-10-18T12:52:00.864Z,2.68
2022-10-18T12:53:18.634Z,3.27
2022-10-18T12:55:45.866Z,3.16
2022-10-18T12:56:47.991Z,3.13
2022-10-18T12:57:59.226Z,3.09
2022-10-18T12:59:17.309Z,3.45
2022-10-18T13:00:32.786Z,3.94
2022-10-18T13:01:57.126Z,4.16
2022-10-18T13:03:15.145Z,3.64
2022-10-18T13:04:29.369Z,3.65
2022-10-18T13:05:53.523Z,3.60
2022-10-18T13:07:09.416Z,3.08
2022-10-18T13:09:33.610Z,3.24
2022-10-18T13:10:35.810Z,3.13
2022-10-18T13:11:37.701Z,3.65
2022-10-18T13:13:12.153Z,4.63
2022-10-18T13:14:18.223Z,3.93
2022-10-18T13:15:35.930Z,3.47
2022-10-18T13:16:44.448Z,3.41
2022-10-18T13:17:52.918Z,3.68
2022-10-18T13:19:18.564Z,4.26
2022-10-18T13:20:42.439Z,3.48
2022-10-18T13:22:06.686Z,4.22
2022-10-18T13:23:34.018Z,4.81
2022-10-18T13:24:46.252Z,4.02
2022-10-18T13:25:55.052Z,4.51
2022-10-18T13:27:36.720Z,3.77
2022-10-18T13:28:29.138Z,4.17
2022-10-18T13:29:43.474Z,4.88
2022-10-18T13:31:04.501Z,4.27
2022-10-18T13:33:39.094Z,4.12
2022-10-18T13:34:42.410Z,4.63
2022-10-18T13:35:59.895Z,3.76
2022-10-18T13:37:11.771Z,4.06
2022-10-18T13:38:42.139Z,4.32
2022-10-18T13:39:44.498Z,5.39
2022-10-18T13:41:01.417Z,4.21
2022-10-18T13:42:16.228Z,3.89
2022-10-18T13:43:54.304Z,3.94
2022-10-18T13:45:16.753Z,4.28
2022-10-18T13:46:24.444Z,3.88
2022-10-18T13:47:37.321Z,4.48
2022-10-18T13:48:52.860Z,4.36
2022-10-18T13:51:39.054Z,3.61
2022-10-18T13:52:55.787Z,3.59
2022-10-18T13:54:10.472Z,5.11
2022-10-18T13:55:53.450Z,5.39
2022-10-18T13:57:26.637Z,4.52
2022-10-18T13:58:35.806Z,4.93
2022-10-18T13:59:44.423Z,4.38
2022-10-18T14:01:09.576Z,4.04
2022-10-18T14:02:49.481Z,3.61
2022-10-18T14:03:58.683Z,3.24
2022-10-18T14:05:25.045Z,4.12
2022-10-18T14:06:28.683Z,5.33
2022-10-18T14:07:32.629Z,4.73
2022-10-18T14:08:38.447Z,3.57
2022-10-18T14:09:54.890Z,4.11
2022-10-18T14:11:12.011Z,3.32
2022-10-18T14:12:40.495Z,3.38
2022-10-18T14:13:49.226Z,3.49
2022-10-18T14:15:00.935Z,3.13
2022-10-18T14:16:08.683Z,3.26
2022-10-18T14:17:18.123Z,3.28
2022-10-18T14:18:23.918Z,3.04
2022-10-18T14:19:47.975Z,3.17
2022-10-18T14:21:12.444Z,2.93
2022-10-18T14:22:07.214Z,3.18
2022-10-18T14:24:23.011Z,3.32
2022-10-18T14:25:31.594Z,3.26
2022-10-18T14:26:35.467Z,3.18
2022-10-18T14:27:37.588Z,3.33
2022-10-18T14:28:58.752Z,3.55
2022-10-18T14:29:44.675Z,3.16
2022-10-18T14:31:04.999Z,3.51
2022-10-18T14:32:10.667Z,3.42
2022-10-18T14:33:28.395Z,3.67
2022-10-18T14:34:30.551Z,3.11
2022-10-18T14:35:39.640Z,3.51
2022-10-18T14:36:40.132Z,3.45
2022-10-18T14:37:42.458Z,3.69
2022-10-18T14:38:56.972Z,3.77
2022-10-18T14:39:58.889Z,4.03
2022-10-18T14:41:15.593Z,3.01
2022-10-18T14:42:21.331Z,3.56
2022-10-18T14:43:23.324Z,3.38
2022-10-18T14:44:30.649Z,3.57
2022-10-18T14:45:32.933Z,3.59
2022-10-18T14:46:38.835Z,3.37
2022-10-18T14:47:40.760Z,4.31
2022-10-18T14:48:57.802Z,4.65
2022-10-18T14:49:59.719Z,3.44
2022-10-18T14:51:04.948Z,4.36
2022-10-18T14:52:20.398Z,4.35
2022-10-18T14:53:22.919Z,3.15
2022-10-18T14:55:42.074Z,3.71
2022-10-18T14:56:45.270Z,3.44
2022-10-18T14:57:47.266Z,3.50
2022-10-18T14:58:49.847Z,2.95
2022-10-18T14:59:54.655Z,3.97
2022-10-18T15:00:58.518Z,3.19
2022-10-18T15:02:03.224Z,3.78
2022-10-18T15:03:07.469Z,3.40
2022-10-18T15:04:12.187Z,3.09
2022-10-18T15:05:17.928Z,3.34
2022-10-18T15:06:20.636Z,3.73
2022-10-18T15:07:23.578Z,4.14
2022-10-18T15:08:37.681Z,3.92
2022-10-18T15:09:40.227Z,3.01
2022-10-18T15:10:42.338Z,2.73
2022-10-18T15:11:46.523Z,3.25
2022-10-18T15:13:08.733Z,3.28
2022-10-18T15:14:00.436Z,3.12
2022-10-18T15:15:03.645Z,3.71
2022-10-18T15:16:07.204Z,3.36
2022-10-18T15:17:15.734Z,3.47
2022-10-18T15:18:26.131Z,3.89
2022-10-18T15:19:37.055Z,3.67
2022-10-18T15:20:39.328Z,3.04